EJU525G LIMC-LIRN
Flight info
| Callsign | EJU525G |
|---|---|
| Flight time | 1h 15m |
| Altitude | 35000 |
| Route | ROBAS DCT LOGDI DCT EKDIR DCT LOMED DCT GENGI DCT EVULI DCT ERIKA |
| Aircraft | A320/M-SDE2E3FGHIJ1RWXYZ/LB1 |
Departure
| Time | 2026-05-04 20:34 |
|---|---|
| Airport | Milan Malpensa International Airport (LIMC) |
Arrival
| Time | 2026-05-04 21:49 |
|---|---|
| Airport | Naples International Airport (LIRN) |
| Time | Latitude | Longitude | Altitude | Speed | Heading |
|---|---|---|---|---|---|
| 2026-05-04 19:34 | 45.64521 | 8.72281 | 752 ft | 0 kts | 348° |
| 2026-05-04 20:25 | 45.64506 | 8.72285 | 747 ft | 4 kts | 350° |
| 2026-05-04 20:25 | 45.64480 | 8.72291 | 749 ft | 4 kts | 356° |
| 2026-05-04 20:25 | 45.64453 | 8.72290 | 751 ft | 4 kts | 12° |
| 2026-05-04 20:25 | 45.64431 | 8.72277 | 750 ft | 4 kts | 64° |
| 2026-05-04 20:26 | 45.64429 | 8.72269 | 747 ft | 0 kts | 79° |
| 2026-05-04 20:27 | 45.64432 | 8.72295 | 749 ft | 8 kts | 79° |
| 2026-05-04 20:28 | 45.64442 | 8.72390 | 750 ft | 10 kts | 94° |
| 2026-05-04 20:28 | 45.64365 | 8.72441 | 751 ft | 17 kts | 168° |
| 2026-05-04 20:28 | 45.64223 | 8.72481 | 752 ft | 23 kts | 169° |
| 2026-05-04 20:28 | 45.64062 | 8.72527 | 749 ft | 25 kts | 166° |
| 2026-05-04 20:29 | 45.63885 | 8.72584 | 750 ft | 27 kts | 169° |
| 2026-05-04 20:29 | 45.63698 | 8.72635 | 750 ft | 28 kts | 169° |
| 2026-05-04 20:29 | 45.63502 | 8.72689 | 750 ft | 29 kts | 169° |
| 2026-05-04 20:29 | 45.63316 | 8.72741 | 749 ft | 25 kts | 169° |
| 2026-05-04 20:30 | 45.63142 | 8.72789 | 748 ft | 26 kts | 169° |
| 2026-05-04 20:30 | 45.62956 | 8.72839 | 751 ft | 28 kts | 169° |
| 2026-05-04 20:30 | 45.62762 | 8.72893 | 752 ft | 29 kts | 169° |
| 2026-05-04 20:30 | 45.62581 | 8.72943 | 753 ft | 24 kts | 169° |
| 2026-05-04 20:31 | 45.62408 | 8.72990 | 751 ft | 26 kts | 169° |
| 2026-05-04 20:31 | 45.62224 | 8.73041 | 750 ft | 28 kts | 169° |
| 2026-05-04 20:31 | 45.62030 | 8.73093 | 750 ft | 29 kts | 169° |
| 2026-05-04 20:31 | 45.61829 | 8.73149 | 751 ft | 29 kts | 169° |
| 2026-05-04 20:32 | 45.61709 | 8.73272 | 750 ft | 21 kts | 124° |
| 2026-05-04 20:32 | 45.61623 | 8.73454 | 751 ft | 23 kts | 124° |
| 2026-05-04 20:32 | 45.61587 | 8.73636 | 749 ft | 19 kts | 82° |
| 2026-05-04 20:32 | 45.61656 | 8.73726 | 745 ft | 15 kts | 355° |
| 2026-05-04 20:33 | 45.61867 | 8.73669 | 744 ft | 61 kts | 349° |
| 2026-05-04 20:33 | 45.62507 | 8.73491 | 745 ft | 123 kts | 349° |
| 2026-05-04 20:33 | 45.63504 | 8.73215 | 749 ft | 170 kts | 349° |
| 2026-05-04 20:33 | 45.64720 | 8.72879 | 1227 ft | 177 kts | 348° |
| 2026-05-04 20:34 | 45.65931 | 8.72676 | 1955 ft | 177 kts | 11° |
| 2026-05-04 20:34 | 45.66961 | 8.73587 | 2602 ft | 177 kts | 47° |
| 2026-05-04 20:34 | 45.67714 | 8.74961 | 3285 ft | 175 kts | 53° |
| 2026-05-04 20:34 | 45.68424 | 8.76372 | 3882 ft | 176 kts | 53° |
| 2026-05-04 20:35 | 45.69189 | 8.77858 | 4176 ft | 196 kts | 52° |
| 2026-05-04 20:35 | 45.70077 | 8.79453 | 4495 ft | 212 kts | 50° |
| 2026-05-04 20:35 | 45.71037 | 8.81092 | 5108 ft | 217 kts | 49° |
| 2026-05-04 20:35 | 45.71985 | 8.82791 | 5754 ft | 224 kts | 62° |
| 2026-05-04 20:36 | 45.72407 | 8.84998 | 6182 ft | 238 kts | 92° |
| 2026-05-04 20:36 | 45.72049 | 8.87315 | 6850 ft | 241 kts | 118° |
| 2026-05-04 20:36 | 45.70995 | 8.89148 | 7599 ft | 241 kts | 146° |
| 2026-05-04 20:36 | 45.69461 | 8.90046 | 8383 ft | 240 kts | 174° |
| 2026-05-04 20:37 | 45.67810 | 8.90206 | 9277 ft | 237 kts | 177° |
| 2026-05-04 20:37 | 45.66164 | 8.90335 | 10146 ft | 236 kts | 177° |
| 2026-05-04 20:37 | 45.64527 | 8.90469 | 10922 ft | 236 kts | 177° |
| 2026-05-04 20:37 | 45.62835 | 8.90636 | 11280 ft | 256 kts | 176° |
| 2026-05-04 20:38 | 45.60976 | 8.90825 | 11482 ft | 280 kts | 177° |
| 2026-05-04 20:38 | 45.58952 | 8.91062 | 11663 ft | 303 kts | 176° |
| 2026-05-04 20:38 | 45.56796 | 8.91287 | 12083 ft | 316 kts | 177° |
| 2026-05-04 20:38 | 45.54578 | 8.91497 | 12719 ft | 322 kts | 178° |
| 2026-05-04 20:39 | 45.52342 | 8.91966 | 13366 ft | 330 kts | 165° |
| 2026-05-04 20:39 | 45.50266 | 8.93448 | 13977 ft | 341 kts | 146° |
| 2026-05-04 20:39 | 45.48636 | 8.95954 | 14530 ft | 352 kts | 125° |
| 2026-05-04 20:39 | 45.47451 | 8.99040 | 15113 ft | 357 kts | 120° |
| 2026-05-04 20:40 | 45.46284 | 9.02174 | 15732 ft | 359 kts | 121° |
| 2026-05-04 20:40 | 45.45105 | 9.05329 | 16327 ft | 363 kts | 121° |
| 2026-05-04 20:40 | 45.43911 | 9.08508 | 16912 ft | 366 kts | 121° |
| 2026-05-04 20:40 | 45.42701 | 9.11717 | 17507 ft | 370 kts | 121° |
| 2026-05-04 20:41 | 45.41474 | 9.14955 | 18066 ft | 373 kts | 121° |
| 2026-05-04 20:41 | 45.40231 | 9.18220 | 18594 ft | 377 kts | 121° |
| 2026-05-04 20:41 | 45.38974 | 9.21517 | 19064 ft | 381 kts | 121° |
| 2026-05-04 20:41 | 45.37706 | 9.24848 | 19566 ft | 384 kts | 121° |
| 2026-05-04 20:42 | 45.36432 | 9.28195 | 20075 ft | 386 kts | 121° |
| 2026-05-04 20:42 | 45.35146 | 9.31565 | 20598 ft | 389 kts | 121° |
| 2026-05-04 20:42 | 45.33852 | 9.34950 | 21099 ft | 391 kts | 121° |
| 2026-05-04 20:42 | 45.32550 | 9.38349 | 21643 ft | 392 kts | 121° |
| 2026-05-04 20:43 | 45.31241 | 9.41765 | 22136 ft | 394 kts | 121° |
| 2026-05-04 20:43 | 45.29926 | 9.45195 | 22618 ft | 397 kts | 122° |
| 2026-05-04 20:43 | 45.28600 | 9.48646 | 23089 ft | 399 kts | 122° |
| 2026-05-04 20:43 | 45.27268 | 9.52111 | 23560 ft | 401 kts | 122° |
| 2026-05-04 20:44 | 45.25928 | 9.55596 | 23953 ft | 403 kts | 122° |
| 2026-05-04 20:44 | 45.24580 | 9.59100 | 24301 ft | 406 kts | 122° |
| 2026-05-04 20:44 | 45.23218 | 9.62629 | 24635 ft | 409 kts | 122° |
| 2026-05-04 20:44 | 45.21846 | 9.66179 | 24974 ft | 412 kts | 122° |
| 2026-05-04 20:45 | 45.20398 | 9.69695 | 25265 ft | 414 kts | 128° |
| 2026-05-04 20:45 | 45.18582 | 9.72849 | 25571 ft | 413 kts | 138° |
| 2026-05-04 20:45 | 45.16422 | 9.75513 | 25887 ft | 412 kts | 148° |
| 2026-05-04 20:45 | 45.14071 | 9.77837 | 26211 ft | 414 kts | 149° |
| 2026-05-04 20:46 | 45.11697 | 9.80171 | 26541 ft | 417 kts | 149° |
| 2026-05-04 20:46 | 45.09309 | 9.82514 | 26866 ft | 419 kts | 149° |
| 2026-05-04 20:46 | 45.06904 | 9.84873 | 27184 ft | 422 kts | 149° |
| 2026-05-04 20:46 | 45.04484 | 9.87245 | 27500 ft | 425 kts | 149° |
| 2026-05-04 20:47 | 45.02049 | 9.89636 | 27819 ft | 428 kts | 149° |
| 2026-05-04 20:47 | 44.99600 | 9.92044 | 28133 ft | 430 kts | 149° |
| 2026-05-04 20:47 | 44.97133 | 9.94461 | 28447 ft | 433 kts | 149° |
| 2026-05-04 20:47 | 44.94652 | 9.96886 | 28739 ft | 435 kts | 149° |
| 2026-05-04 20:48 | 44.92151 | 9.99323 | 29009 ft | 439 kts | 149° |
| 2026-05-04 20:48 | 44.89633 | 10.01782 | 29278 ft | 442 kts | 149° |
| 2026-05-04 20:48 | 44.87100 | 10.04256 | 29569 ft | 444 kts | 150° |
| 2026-05-04 20:48 | 44.84554 | 10.06743 | 29861 ft | 447 kts | 150° |
| 2026-05-04 20:49 | 44.81989 | 10.09248 | 30129 ft | 449 kts | 150° |
| 2026-05-04 20:49 | 44.79412 | 10.11760 | 30367 ft | 452 kts | 150° |
| 2026-05-04 20:49 | 44.76822 | 10.14277 | 30603 ft | 453 kts | 150° |
| 2026-05-04 20:49 | 44.74219 | 10.16799 | 30840 ft | 455 kts | 150° |
| 2026-05-04 20:50 | 44.71645 | 10.19288 | 31107 ft | 455 kts | 150° |
| 2026-05-04 20:50 | 44.69047 | 10.21823 | 31483 ft | 454 kts | 149° |
| 2026-05-04 20:50 | 44.66478 | 10.24404 | 31809 ft | 454 kts | 149° |
| 2026-05-04 20:50 | 44.63923 | 10.27021 | 32066 ft | 456 kts | 149° |
| 2026-05-04 20:51 | 44.61368 | 10.29667 | 32306 ft | 457 kts | 149° |
| 2026-05-04 20:51 | 44.58806 | 10.32323 | 32668 ft | 457 kts | 149° |
| 2026-05-04 20:51 | 44.56245 | 10.34963 | 33000 ft | 457 kts | 149° |
| 2026-05-04 20:51 | 44.53682 | 10.37585 | 33327 ft | 456 kts | 149° |
| 2026-05-04 20:52 | 44.51113 | 10.40190 | 33671 ft | 455 kts | 150° |
| 2026-05-04 20:52 | 44.48551 | 10.42774 | 34079 ft | 453 kts | 150° |
| 2026-05-04 20:52 | 44.45996 | 10.45348 | 34406 ft | 452 kts | 150° |
| 2026-05-04 20:52 | 44.43447 | 10.47914 | 34682 ft | 451 kts | 150° |
| 2026-05-04 20:53 | 44.40900 | 10.50481 | 34942 ft | 451 kts | 150° |
| 2026-05-04 20:53 | 44.38354 | 10.53051 | 35124 ft | 451 kts | 150° |
| 2026-05-04 20:53 | 44.33301 | 10.58144 | 35182 ft | 447 kts | 150° |
| 2026-05-04 20:54 | 44.28235 | 10.63222 | 35196 ft | 449 kts | 150° |
| 2026-05-04 20:54 | 44.23159 | 10.68308 | 35209 ft | 449 kts | 150° |
| 2026-05-04 20:55 | 44.18509 | 10.74236 | 35198 ft | 460 kts | 135° |
| 2026-05-04 20:55 | 44.14400 | 10.81070 | 35198 ft | 460 kts | 135° |
| 2026-05-04 20:56 | 44.10279 | 10.87882 | 35183 ft | 460 kts | 135° |
| 2026-05-04 20:56 | 44.06157 | 10.94676 | 35141 ft | 460 kts | 135° |
| 2026-05-04 20:57 | 44.01944 | 11.01356 | 35124 ft | 456 kts | 142° |
| 2026-05-04 20:57 | 43.97364 | 11.07336 | 35100 ft | 456 kts | 142° |
| 2026-05-04 20:58 | 43.92739 | 11.13359 | 35095 ft | 456 kts | 142° |
| 2026-05-04 20:58 | 43.88108 | 11.19375 | 35094 ft | 456 kts | 142° |
| 2026-05-04 20:59 | 43.83473 | 11.25388 | 35098 ft | 457 kts | 143° |
| 2026-05-04 20:59 | 43.78831 | 11.31397 | 35084 ft | 458 kts | 143° |
| 2026-05-04 21:00 | 43.74163 | 11.37418 | 35091 ft | 459 kts | 143° |
| 2026-05-04 21:00 | 43.69486 | 11.43442 | 35096 ft | 460 kts | 143° |
| 2026-05-04 21:01 | 43.64796 | 11.49466 | 35105 ft | 461 kts | 143° |
| 2026-05-04 21:01 | 43.60092 | 11.55491 | 35099 ft | 462 kts | 143° |
| 2026-05-04 21:02 | 43.55383 | 11.61521 | 35105 ft | 462 kts | 143° |
| 2026-05-04 21:02 | 43.50663 | 11.67552 | 35108 ft | 463 kts | 143° |
| 2026-05-04 21:03 | 43.45929 | 11.73579 | 35099 ft | 464 kts | 142° |
| 2026-05-04 21:03 | 43.41188 | 11.79605 | 35099 ft | 465 kts | 142° |
| 2026-05-04 21:04 | 43.36425 | 11.85634 | 35104 ft | 466 kts | 142° |
| 2026-05-04 21:04 | 43.31660 | 11.91660 | 35112 ft | 466 kts | 143° |
| 2026-05-04 21:05 | 43.26882 | 11.97695 | 35116 ft | 466 kts | 142° |
| 2026-05-04 21:05 | 43.22105 | 12.03720 | 35119 ft | 467 kts | 143° |
| 2026-05-04 21:06 | 43.17321 | 12.09735 | 35100 ft | 467 kts | 142° |
| 2026-05-04 21:06 | 43.12553 | 12.15705 | 35109 ft | 468 kts | 142° |
| 2026-05-04 21:07 | 43.07747 | 12.21709 | 35132 ft | 468 kts | 142° |
| 2026-05-04 21:07 | 43.02938 | 12.27721 | 35138 ft | 468 kts | 142° |
| 2026-05-04 21:08 | 42.98120 | 12.33726 | 35141 ft | 469 kts | 142° |
| 2026-05-04 21:08 | 42.93297 | 12.39713 | 35134 ft | 468 kts | 142° |
| 2026-05-04 21:09 | 42.89257 | 12.44713 | 35137 ft | 468 kts | 142° |
| 2026-05-04 21:09 | 42.84464 | 12.50646 | 35127 ft | 469 kts | 142° |
| 2026-05-04 21:10 | 42.79635 | 12.56616 | 35132 ft | 469 kts | 142° |
| 2026-05-04 21:10 | 42.74805 | 12.62576 | 35132 ft | 468 kts | 142° |
| 2026-05-04 21:11 | 42.69970 | 12.68521 | 35128 ft | 468 kts | 142° |
| 2026-05-04 21:11 | 42.65132 | 12.74450 | 35139 ft | 468 kts | 142° |
| 2026-05-04 21:12 | 42.60298 | 12.80368 | 35143 ft | 468 kts | 142° |
| 2026-05-04 21:12 | 42.55455 | 12.86287 | 35137 ft | 469 kts | 142° |
| 2026-05-04 21:13 | 42.50592 | 12.92196 | 35140 ft | 469 kts | 142° |
| 2026-05-04 21:13 | 42.45731 | 12.98096 | 35133 ft | 469 kts | 142° |
| 2026-05-04 21:14 | 42.40873 | 13.03994 | 35139 ft | 469 kts | 142° |
| 2026-05-04 21:14 | 42.36054 | 13.09962 | 35145 ft | 470 kts | 141° |
| 2026-05-04 21:15 | 42.31329 | 13.16069 | 35143 ft | 471 kts | 140° |
| 2026-05-04 21:15 | 42.26594 | 13.22193 | 35142 ft | 471 kts | 140° |
| 2026-05-04 21:16 | 42.21830 | 13.28284 | 35134 ft | 472 kts | 140° |
| 2026-05-04 21:16 | 42.19439 | 13.31325 | 34982 ft | 475 kts | 141° |
| 2026-05-04 21:16 | 42.17010 | 13.34403 | 34081 ft | 483 kts | 141° |
| 2026-05-04 21:17 | 42.14558 | 13.37507 | 33343 ft | 483 kts | 141° |
| 2026-05-04 21:17 | 42.12155 | 13.40556 | 32861 ft | 478 kts | 141° |
| 2026-05-04 21:17 | 42.09714 | 13.43657 | 32329 ft | 474 kts | 141° |
| 2026-05-04 21:17 | 42.07328 | 13.46686 | 31822 ft | 470 kts | 141° |
| 2026-05-04 21:18 | 42.04957 | 13.49694 | 31309 ft | 467 kts | 140° |
| 2026-05-04 21:18 | 42.02603 | 13.52674 | 30816 ft | 463 kts | 140° |
| 2026-05-04 21:18 | 42.00261 | 13.55630 | 30321 ft | 460 kts | 140° |
| 2026-05-04 21:18 | 41.97966 | 13.58520 | 29812 ft | 456 kts | 140° |
| 2026-05-04 21:19 | 41.95664 | 13.61418 | 29355 ft | 451 kts | 140° |
| 2026-05-04 21:19 | 41.93386 | 13.64283 | 28887 ft | 446 kts | 140° |
| 2026-05-04 21:19 | 41.91138 | 13.67110 | 28425 ft | 440 kts | 140° |
| 2026-05-04 21:19 | 41.88916 | 13.69904 | 27995 ft | 435 kts | 140° |
| 2026-05-04 21:20 | 41.86718 | 13.72663 | 27556 ft | 431 kts | 140° |
| 2026-05-04 21:20 | 41.84540 | 13.75387 | 27116 ft | 426 kts | 140° |
| 2026-05-04 21:20 | 41.82381 | 13.78082 | 26652 ft | 421 kts | 140° |
| 2026-05-04 21:20 | 41.80255 | 13.80737 | 26204 ft | 416 kts | 140° |
| 2026-05-04 21:21 | 41.78145 | 13.83371 | 25750 ft | 413 kts | 140° |
| 2026-05-04 21:21 | 41.76051 | 13.85984 | 25272 ft | 409 kts | 139° |
| 2026-05-04 21:21 | 41.73974 | 13.88572 | 24825 ft | 407 kts | 139° |
| 2026-05-04 21:21 | 41.71907 | 13.91143 | 24349 ft | 405 kts | 139° |
| 2026-05-04 21:22 | 41.69848 | 13.93702 | 23868 ft | 403 kts | 139° |
| 2026-05-04 21:22 | 41.67798 | 13.96248 | 23345 ft | 401 kts | 139° |
| 2026-05-04 21:22 | 41.65768 | 13.98771 | 22867 ft | 397 kts | 139° |
| 2026-05-04 21:22 | 41.63755 | 14.01272 | 22410 ft | 393 kts | 139° |
| 2026-05-04 21:23 | 41.61771 | 14.03766 | 21960 ft | 390 kts | 137° |
| 2026-05-04 21:23 | 41.59877 | 14.06342 | 21506 ft | 388 kts | 135° |
| 2026-05-04 21:23 | 41.58056 | 14.08985 | 21054 ft | 385 kts | 134° |
| 2026-05-04 21:23 | 41.56280 | 14.11648 | 20614 ft | 383 kts | 133° |
| 2026-05-04 21:24 | 41.54518 | 14.14305 | 20174 ft | 381 kts | 133° |
| 2026-05-04 21:24 | 41.52758 | 14.16935 | 19732 ft | 379 kts | 134° |
| 2026-05-04 21:24 | 41.50994 | 14.19536 | 19285 ft | 378 kts | 134° |
| 2026-05-04 21:24 | 41.49224 | 14.22111 | 18913 ft | 375 kts | 134° |
| 2026-05-04 21:25 | 41.47453 | 14.24662 | 18479 ft | 374 kts | 134° |
| 2026-05-04 21:25 | 41.45692 | 14.27188 | 17996 ft | 372 kts | 134° |
| 2026-05-04 21:25 | 41.43942 | 14.29701 | 17609 ft | 368 kts | 134° |
| 2026-05-04 21:25 | 41.42189 | 14.32167 | 17226 ft | 364 kts | 138° |
| 2026-05-04 21:26 | 41.40302 | 14.34425 | 16732 ft | 363 kts | 140° |
| 2026-05-04 21:26 | 41.38423 | 14.36628 | 16372 ft | 359 kts | 140° |
| 2026-05-04 21:26 | 41.36562 | 14.38791 | 16177 ft | 350 kts | 140° |
| 2026-05-04 21:26 | 41.34747 | 14.40893 | 16007 ft | 342 kts | 140° |
| 2026-05-04 21:27 | 41.32885 | 14.42775 | 15857 ft | 331 kts | 150° |
| 2026-05-04 21:27 | 41.30935 | 14.44378 | 15601 ft | 328 kts | 149° |
| 2026-05-04 21:27 | 41.29033 | 14.45949 | 15306 ft | 325 kts | 149° |
| 2026-05-04 21:27 | 41.27101 | 14.47494 | 14984 ft | 322 kts | 156° |
| 2026-05-04 21:28 | 41.24985 | 14.48237 | 14507 ft | 312 kts | 183° |
| 2026-05-04 21:28 | 41.22939 | 14.47543 | 13965 ft | 303 kts | 213° |
| 2026-05-04 21:28 | 41.21410 | 14.45688 | 13286 ft | 298 kts | 233° |
| 2026-05-04 21:28 | 41.20256 | 14.43421 | 12641 ft | 295 kts | 241° |
| 2026-05-04 21:29 | 41.19271 | 14.41047 | 12051 ft | 292 kts | 243° |
| 2026-05-04 21:29 | 41.18251 | 14.38739 | 11463 ft | 289 kts | 229° |
| 2026-05-04 21:29 | 41.16619 | 14.37277 | 10929 ft | 286 kts | 197° |
| 2026-05-04 21:29 | 41.14661 | 14.37224 | 10379 ft | 285 kts | 166° |
| 2026-05-04 21:30 | 41.12857 | 14.38306 | 9751 ft | 286 kts | 150° |
| 2026-05-04 21:30 | 41.11230 | 14.39820 | 9120 ft | 285 kts | 144° |
| 2026-05-04 21:30 | 41.09682 | 14.41413 | 8725 ft | 274 kts | 144° |
| 2026-05-04 21:30 | 41.08218 | 14.42888 | 8559 ft | 255 kts | 146° |
| 2026-05-04 21:31 | 41.05393 | 14.45528 | 7799 ft | 245 kts | 147° |
| 2026-05-04 21:31 | 41.03990 | 14.46784 | 7347 ft | 243 kts | 148° |
| 2026-05-04 21:31 | 41.02588 | 14.48019 | 6934 ft | 240 kts | 148° |
| 2026-05-04 21:32 | 41.01204 | 14.49222 | 6295 ft | 238 kts | 149° |
| 2026-05-04 21:32 | 40.99684 | 14.49935 | 5656 ft | 231 kts | 183° |
| 2026-05-04 21:32 | 40.98228 | 14.49246 | 5105 ft | 225 kts | 220° |
| 2026-05-04 21:32 | 40.97279 | 14.47611 | 4376 ft | 227 kts | 237° |
| 2026-05-04 21:33 | 40.96469 | 14.45829 | 3638 ft | 230 kts | 238° |
| 2026-05-04 21:33 | 40.95637 | 14.44039 | 3043 ft | 226 kts | 237° |
| 2026-05-04 21:33 | 40.94832 | 14.42334 | 2562 ft | 210 kts | 237° |
| 2026-05-04 21:33 | 40.94080 | 14.40738 | 2342 ft | 189 kts | 238° |
| 2026-05-04 21:34 | 40.93427 | 14.39342 | 2087 ft | 177 kts | 238° |
| 2026-05-04 21:34 | 40.92793 | 14.37990 | 1795 ft | 168 kts | 238° |
| 2026-05-04 21:34 | 40.92185 | 14.36698 | 1483 ft | 163 kts | 238° |
| 2026-05-04 21:34 | 40.91600 | 14.35451 | 1272 ft | 158 kts | 238° |
| 2026-05-04 21:35 | 40.91020 | 14.34222 | 1058 ft | 157 kts | 239° |
| 2026-05-04 21:35 | 40.90445 | 14.33000 | 801 ft | 156 kts | 239° |
| 2026-05-04 21:35 | 40.89871 | 14.31781 | 578 ft | 156 kts | 239° |
| 2026-05-04 21:35 | 40.89298 | 14.30567 | 358 ft | 156 kts | 239° |
| 2026-05-04 21:36 | 40.88754 | 14.29394 | 310 ft | 140 kts | 239° |
| 2026-05-04 21:36 | 40.88215 | 14.28233 | 914 ft | 155 kts | 240° |
| 2026-05-04 21:36 | 40.87563 | 14.27058 | 1561 ft | 164 kts | 224° |
| 2026-05-04 21:36 | 40.86577 | 14.26159 | 1830 ft | 182 kts | 201° |
| 2026-05-04 21:37 | 40.85318 | 14.25615 | 2076 ft | 200 kts | 196° |
| 2026-05-04 21:37 | 40.83907 | 14.25070 | 2294 ft | 220 kts | 196° |
| 2026-05-04 21:37 | 40.82428 | 14.24475 | 2847 ft | 224 kts | 197° |
| 2026-05-04 21:37 | 40.80940 | 14.23846 | 3469 ft | 225 kts | 197° |
| 2026-05-04 21:38 | 40.79447 | 14.23240 | 4088 ft | 225 kts | 197° |
| 2026-05-04 21:38 | 40.77947 | 14.22635 | 4700 ft | 226 kts | 197° |
| 2026-05-04 21:38 | 40.76441 | 14.21991 | 4947 ft | 227 kts | 205° |
| 2026-05-04 21:38 | 40.75179 | 14.20759 | 4996 ft | 227 kts | 223° |
| 2026-05-04 21:39 | 40.74313 | 14.19054 | 4998 ft | 227 kts | 252° |
| 2026-05-04 21:39 | 40.74206 | 14.16975 | 4999 ft | 231 kts | 277° |
| 2026-05-04 21:39 | 40.74507 | 14.14891 | 5000 ft | 232 kts | 279° |
| 2026-05-04 21:39 | 40.74814 | 14.12805 | 5000 ft | 232 kts | 279° |
| 2026-05-04 21:40 | 40.75425 | 14.10845 | 4995 ft | 235 kts | 306° |
| 2026-05-04 21:40 | 40.76693 | 14.09494 | 4999 ft | 238 kts | 336° |
| 2026-05-04 21:40 | 40.78320 | 14.09134 | 5007 ft | 240 kts | 6° |
| 2026-05-04 21:40 | 40.79879 | 14.09875 | 5007 ft | 241 kts | 37° |
| 2026-05-04 21:41 | 40.81126 | 14.11345 | 5010 ft | 242 kts | 44° |
| 2026-05-04 21:41 | 40.82347 | 14.12869 | 4993 ft | 241 kts | 44° |
| 2026-05-04 21:41 | 40.83559 | 14.14379 | 4550 ft | 238 kts | 44° |
| 2026-05-04 21:41 | 40.84753 | 14.15862 | 4187 ft | 230 kts | 44° |
| 2026-05-04 21:42 | 40.85938 | 14.17332 | 4063 ft | 236 kts | 44° |
| 2026-05-04 21:42 | 40.87135 | 14.18815 | 3937 ft | 236 kts | 44° |
| 2026-05-04 21:42 | 40.88315 | 14.20276 | 3815 ft | 235 kts | 44° |
| 2026-05-04 21:42 | 40.89509 | 14.21755 | 3690 ft | 235 kts | 44° |
| 2026-05-04 21:43 | 40.90665 | 14.23269 | 3567 ft | 233 kts | 46° |
| 2026-05-04 21:43 | 40.91787 | 14.24812 | 3444 ft | 233 kts | 46° |
| 2026-05-04 21:43 | 40.92897 | 14.26331 | 3313 ft | 223 kts | 46° |
| 2026-05-04 21:43 | 40.93944 | 14.27761 | 3184 ft | 212 kts | 46° |
| 2026-05-04 21:44 | 40.94937 | 14.29170 | 3056 ft | 208 kts | 54° |
| 2026-05-04 21:44 | 40.95678 | 14.30791 | 2930 ft | 205 kts | 63° |
| 2026-05-04 21:44 | 40.96324 | 14.32469 | 2806 ft | 204 kts | 64° |
| 2026-05-04 21:44 | 40.96953 | 14.34152 | 2682 ft | 204 kts | 64° |
| 2026-05-04 21:45 | 40.97577 | 14.35834 | 2545 ft | 204 kts | 64° |
| 2026-05-04 21:45 | 40.98160 | 14.37532 | 2425 ft | 201 kts | 76° |
| 2026-05-04 21:45 | 40.98104 | 14.39249 | 2339 ft | 179 kts | 114° |
| 2026-05-04 21:45 | 40.97396 | 14.40486 | 2248 ft | 167 kts | 143° |
| 2026-05-04 21:46 | 40.96378 | 14.41156 | 2212 ft | 163 kts | 168° |
| 2026-05-04 21:46 | 40.95250 | 14.41192 | 2210 ft | 163 kts | 193° |
| 2026-05-04 21:46 | 40.94218 | 14.40596 | 2165 ft | 163 kts | 217° |
| 2026-05-04 21:46 | 40.93502 | 14.39496 | 2024 ft | 154 kts | 238° |
| 2026-05-04 21:47 | 40.92952 | 14.38323 | 1828 ft | 147 kts | 238° |
| 2026-05-04 21:47 | 40.92420 | 14.37190 | 1615 ft | 144 kts | 238° |
| 2026-05-04 21:47 | 40.91892 | 14.36069 | 1380 ft | 143 kts | 238° |
| 2026-05-04 21:47 | 40.91367 | 14.34954 | 1181 ft | 143 kts | 239° |
| 2026-05-04 21:48 | 40.90843 | 14.33840 | 983 ft | 143 kts | 239° |
| 2026-05-04 21:48 | 40.90317 | 14.32724 | 749 ft | 143 kts | 240° |
| 2026-05-04 21:48 | 40.89793 | 14.31612 | 559 ft | 143 kts | 239° |
| 2026-05-04 21:48 | 40.89270 | 14.30505 | 335 ft | 142 kts | 239° |
| 2026-05-04 21:49 | 40.88768 | 14.29448 | 260 ft | 123 kts | 247° |
| 2026-05-04 21:49 | 40.88454 | 14.28759 | 275 ft | 55 kts | 238° |
| 2026-05-04 21:49 | 40.88288 | 14.28469 | 282 ft | 28 kts | 214° |
| 2026-05-04 21:49 | 40.88124 | 14.28348 | 286 ft | 20 kts | 209° |
| 2026-05-04 21:50 | 40.88062 | 14.28341 | 290 ft | 8 kts | 122° |
| 2026-05-04 21:50 | 40.88053 | 14.28429 | 286 ft | 13 kts | 96° |
| 2026-05-04 21:50 | 40.88010 | 14.28521 | 285 ft | 14 kts | 193° |
| 2026-05-04 21:50 | 40.87936 | 14.28443 | 288 ft | 14 kts | 247° |
| 2026-05-04 21:51 | 40.87935 | 14.28394 | 288 ft | 0 kts | 276° |
| 2026-05-04 21:51 | 40.87935 | 14.28364 | 291 ft | 8 kts | 258° |
| 2026-05-04 21:51 | 40.87894 | 14.28345 | 290 ft | 4 kts | 186° |
| 2026-05-04 21:51 | 40.87876 | 14.28342 | 292 ft | 1 kts | 187° |
| 2026-05-04 21:52 | 40.87874 | 14.28342 | 292 ft | 0 kts | 187° |